sensor_id;sensor_type;location;lat;lon;timestamp;temperature;humidity
16532;DHT22;66872;63.142;14.482;2024-02-15T00:00:52;15.10;25.20
16532;DHT22;66872;63.142;14.482;2024-02-15T00:03:19;15.10;25.10
16532;DHT22;66872;63.142;14.482;2024-02-15T00:05:45;15.10;25.10
16532;DHT22;66872;63.142;14.482;2024-02-15T00:08:12;15.10;25.10
16532;DHT22;66872;63.142;14.482;2024-02-15T00:10:37;15.10;25.60
16532;DHT22;66872;63.142;14.482;2024-02-15T00:13:03;15.10;25.20
16532;DHT22;66872;63.142;14.482;2024-02-15T00:15:31;15.10;25.10
16532;DHT22;66872;63.142;14.482;2024-02-15T00:17:57;15.10;25.10
16532;DHT22;66872;63.142;14.482;2024-02-15T00:20:23;15.10;25.10
16532;DHT22;66872;63.142;14.482;2024-02-15T00:22:48;15.10;25.10
16532;DHT22;66872;63.142;14.482;2024-02-15T00:25:15;15.10;25.10
16532;DHT22;66872;63.142;14.482;2024-02-15T00:27:42;15.10;25.10
16532;DHT22;66872;63.142;14.482;2024-02-15T00:30:08;15.10;25.10
16532;DHT22;66872;63.142;14.482;2024-02-15T00:32:34;15.10;25.00
16532;DHT22;66872;63.142;14.482;2024-02-15T00:35:00;15.10;25.10
16532;DHT22;66872;63.142;14.482;2024-02-15T00:37:26;15.10;25.10
16532;DHT22;66872;63.142;14.482;2024-02-15T00:39:51;15.10;25.10
16532;DHT22;66872;63.142;14.482;2024-02-15T00:42:17;15.10;25.10
16532;DHT22;66872;63.142;14.482;2024-02-15T00:44:44;15.00;25.10
16532;DHT22;66872;63.142;14.482;2024-02-15T00:47:10;15.00;25.10
16532;DHT22;66872;63.142;14.482;2024-02-15T00:49:37;15.00;25.10
16532;DHT22;66872;63.142;14.482;2024-02-15T00:52:03;15.10;25.20
16532;DHT22;66872;63.142;14.482;2024-02-15T00:54:29;15.00;25.10
16532;DHT22;66872;63.142;14.482;2024-02-15T00:56:54;15.10;25.20
16532;DHT22;66872;63.142;14.482;2024-02-15T00:59:20;15.00;25.10
16532;DHT22;66872;63.142;14.482;2024-02-15T01:01:46;15.00;25.10
16532;DHT22;66872;63.142;14.482;2024-02-15T01:04:13;15.00;25.10
16532;DHT22;66872;63.142;14.482;2024-02-15T01:06:39;15.10;25.10
16532;DHT22;66872;63.142;14.482;2024-02-15T01:09:04;15.10;25.10
16532;DHT22;66872;63.142;14.482;2024-02-15T01:11:31;15.00;25.10
16532;DHT22;66872;63.142;14.482;2024-02-15T01:14:01;15.00;25.10
16532;DHT22;66872;63.142;14.482;2024-02-15T01:16:26;15.10;25.10
16532;DHT22;66872;63.142;14.482;2024-02-15T01:18:52;15.10;25.10
16532;DHT22;66872;63.142;14.482;2024-02-15T01:21:18;15.00;25.10
16532;DHT22;66872;63.142;14.482;2024-02-15T01:23:44;15.00;25.60
16532;DHT22;66872;63.142;14.482;2024-02-15T01:26:12;15.00;25.10
16532;DHT22;66872;63.142;14.482;2024-02-15T01:28:39;15.00;25.10
16532;DHT22;66872;63.142;14.482;2024-02-15T01:31:08;15.00;25.10
16532;DHT22;66872;63.142;14.482;2024-02-15T01:33:36;15.00;25.10
16532;DHT22;66872;63.142;14.482;2024-02-15T01:36:03;15.00;25.10
16532;DHT22;66872;63.142;14.482;2024-02-15T01:38:28;15.00;25.10
16532;DHT22;66872;63.142;14.482;2024-02-15T01:40:54;15.00;25.10
16532;DHT22;66872;63.142;14.482;2024-02-15T01:43:20;15.10;25.10
16532;DHT22;66872;63.142;14.482;2024-02-15T01:45:45;15.00;25.00
16532;DHT22;66872;63.142;14.482;2024-02-15T01:48:15;15.10;25.10
16532;DHT22;66872;63.142;14.482;2024-02-15T01:50:41;15.10;25.00
16532;DHT22;66872;63.142;14.482;2024-02-15T01:53:09;15.10;25.00
16532;DHT22;66872;63.142;14.482;2024-02-15T01:55:37;15.10;25.00
16532;DHT22;66872;63.142;14.482;2024-02-15T01:58:03;15.10;25.00
16532;DHT22;66872;63.142;14.482;2024-02-15T02:00:30;15.10;25.00
16532;DHT22;66872;63.142;14.482;2024-02-15T02:02:57;15.10;25.00
16532;DHT22;66872;63.142;14.482;2024-02-15T02:05:27;15.10;25.00
16532;DHT22;66872;63.142;14.482;2024-02-15T02:07:56;15.10;24.90
16532;DHT22;66872;63.142;14.482;2024-02-15T02:10:26;15.10;24.90
16532;DHT22;66872;63.142;14.482;2024-02-15T02:12:52;15.10;25.00
16532;DHT22;66872;63.142;14.482;2024-02-15T02:15:19;15.10;24.90
16532;DHT22;66872;63.142;14.482;2024-02-15T02:17:54;15.10;24.90
16532;DHT22;66872;63.142;14.482;2024-02-15T02:20:19;15.10;25.00
16532;DHT22;66872;63.142;14.482;2024-02-15T02:22:48;15.10;25.00
16532;DHT22;66872;63.142;14.482;2024-02-15T02:25:16;15.10;25.00
16532;DHT22;66872;63.142;14.482;2024-02-15T02:27:42;15.10;25.00
16532;DHT22;66872;63.142;14.482;2024-02-15T02:30:15;15.10;25.00
16532;DHT22;66872;63.142;14.482;2024-02-15T02:32:47;15.10;25.00
16532;DHT22;66872;63.142;14.482;2024-02-15T02:35:13;15.00;25.00
16532;DHT22;66872;63.142;14.482;2024-02-15T02:37:41;15.00;24.90
16532;DHT22;66872;63.142;14.482;2024-02-15T02:40:08;15.10;25.00
16532;DHT22;66872;63.142;14.482;2024-02-15T02:42:36;15.10;25.00
16532;DHT22;66872;63.142;14.482;2024-02-15T02:45:03;15.10;25.00
16532;DHT22;66872;63.142;14.482;2024-02-15T02:47:30;15.10;25.00
16532;DHT22;66872;63.142;14.482;2024-02-15T02:49:56;15.00;24.90
16532;DHT22;66872;63.142;14.482;2024-02-15T02:52:22;15.10;25.00
16532;DHT22;66872;63.142;14.482;2024-02-15T02:54:47;15.10;24.90
16532;DHT22;66872;63.142;14.482;2024-02-15T02:57:13;15.10;24.90
16532;DHT22;66872;63.142;14.482;2024-02-15T02:59:39;15.10;24.90
16532;DHT22;66872;63.142;14.482;2024-02-15T03:02:05;15.10;24.90
16532;DHT22;66872;63.142;14.482;2024-02-15T03:04:32;15.10;25.40
16532;DHT22;66872;63.142;14.482;2024-02-15T03:06:58;15.10;24.90
16532;DHT22;66872;63.142;14.482;2024-02-15T03:09:24;15.10;25.00
16532;DHT22;66872;63.142;14.482;2024-02-15T03:11:51;15.10;24.90
16532;DHT22;66872;63.142;14.482;2024-02-15T03:14:17;15.10;24.90
16532;DHT22;66872;63.142;14.482;2024-02-15T03:16:42;15.10;24.80
16532;DHT22;66872;63.142;14.482;2024-02-15T03:19:08;15.10;24.80
16532;DHT22;66872;63.142;14.482;2024-02-15T03:21:36;15.10;24.80
16532;DHT22;66872;63.142;14.482;2024-02-15T03:24:02;15.10;24.80
16532;DHT22;66872;63.142;14.482;2024-02-15T03:26:32;15.10;24.80
16532;DHT22;66872;63.142;14.482;2024-02-15T03:29:04;15.10;24.80
16532;DHT22;66872;63.142;14.482;2024-02-15T03:31:29;15.10;24.80
16532;DHT22;66872;63.142;14.482;2024-02-15T03:33:58;15.10;24.80
16532;DHT22;66872;63.142;14.482;2024-02-15T03:36:25;15.10;24.80
16532;DHT22;66872;63.142;14.482;2024-02-15T03:38:52;15.10;24.70
16532;DHT22;66872;63.142;14.482;2024-02-15T03:41:19;15.10;24.70
16532;DHT22;66872;63.142;14.482;2024-02-15T03:43:45;15.10;24.70
16532;DHT22;66872;63.142;14.482;2024-02-15T03:46:12;15.10;24.70
16532;DHT22;66872;63.142;14.482;2024-02-15T03:48:38;15.10;24.70
16532;DHT22;66872;63.142;14.482;2024-02-15T03:51:04;15.10;24.70
16532;DHT22;66872;63.142;14.482;2024-02-15T03:53:31;15.10;24.70
16532;DHT22;66872;63.142;14.482;2024-02-15T03:55:59;15.10;24.70
16532;DHT22;66872;63.142;14.482;2024-02-15T03:58:26;15.10;24.70
16532;DHT22;66872;63.142;14.482;2024-02-15T04:00:51;15.10;25.10
16532;DHT22;66872;63.142;14.482;2024-02-15T04:03:17;15.10;24.60
16532;DHT22;66872;63.142;14.482;2024-02-15T04:05:43;15.10;24.60
16532;DHT22;66872;63.142;14.482;2024-02-15T04:08:08;15.10;24.60
16532;DHT22;66872;63.142;14.482;2024-02-15T04:10:35;15.20;24.60
16532;DHT22;66872;63.142;14.482;2024-02-15T04:13:00;15.10;24.60
16532;DHT22;66872;63.142;14.482;2024-02-15T04:15:26;15.10;24.60
16532;DHT22;66872;63.142;14.482;2024-02-15T04:17:52;15.10;24.60
16532;DHT22;66872;63.142;14.482;2024-02-15T04:20:22;15.10;24.60
16532;DHT22;66872;63.142;14.482;2024-02-15T04:22:47;15.10;24.50
16532;DHT22;66872;63.142;14.482;2024-02-15T04:25:16;15.10;24.50
16532;DHT22;66872;63.142;14.482;2024-02-15T04:27:46;15.10;24.50
16532;DHT22;66872;63.142;14.482;2024-02-15T04:30:15;15.10;24.50
16532;DHT22;66872;63.142;14.482;2024-02-15T04:32:41;15.10;24.50
16532;DHT22;66872;63.142;14.482;2024-02-15T04:35:07;15.10;24.50
16532;DHT22;66872;63.142;14.482;2024-02-15T04:37:32;15.10;24.50
16532;DHT22;66872;63.142;14.482;2024-02-15T04:40:01;15.10;24.50
16532;DHT22;66872;63.142;14.482;2024-02-15T04:42:33;15.10;24.50
16532;DHT22;66872;63.142;14.482;2024-02-15T04:45:00;15.10;24.60
16532;DHT22;66872;63.142;14.482;2024-02-15T04:47:26;15.10;24.50
16532;DHT22;66872;63.142;14.482;2024-02-15T04:49:52;15.10;24.50
16532;DHT22;66872;63.142;14.482;2024-02-15T04:52:17;15.10;24.50
16532;DHT22;66872;63.142;14.482;2024-02-15T04:54:43;15.10;24.50
16532;DHT22;66872;63.142;14.482;2024-02-15T04:57:10;15.10;24.50
16532;DHT22;66872;63.142;14.482;2024-02-15T04:59:37;15.10;24.50
16532;DHT22;66872;63.142;14.482;2024-02-15T05:02:03;15.10;24.50
16532;DHT22;66872;63.142;14.482;2024-02-15T05:04:28;15.10;24.50
16532;DHT22;66872;63.142;14.482;2024-02-15T05:06:54;15.10;24.50
16532;DHT22;66872;63.142;14.482;2024-02-15T05:09:21;15.10;24.50
16532;DHT22;66872;63.142;14.482;2024-02-15T05:11:48;15.10;24.40
16532;DHT22;66872;63.142;14.482;2024-02-15T05:14:14;15.10;24.40
16532;DHT22;66872;63.142;14.482;2024-02-15T05:16:45;15.10;24.50
16532;DHT22;66872;63.142;14.482;2024-02-15T05:19:15;15.10;24.40
16532;DHT22;66872;63.142;14.482;2024-02-15T05:21:42;15.10;24.40
16532;DHT22;66872;63.142;14.482;2024-02-15T05:24:12;15.10;24.40
16532;DHT22;66872;63.142;14.482;2024-02-15T05:26:39;15.10;24.40
16532;DHT22;66872;63.142;14.482;2024-02-15T05:29:05;15.10;24.40
16532;DHT22;66872;63.142;14.482;2024-02-15T05:31:31;15.10;24.40
16532;DHT22;66872;63.142;14.482;2024-02-15T05:33:57;15.10;24.40
16532;DHT22;66872;63.142;14.482;2024-02-15T05:36:23;15.10;24.40
16532;DHT22;66872;63.142;14.482;2024-02-15T05:38:54;15.10;24.40
16532;DHT22;66872;63.142;14.482;2024-02-15T05:41:20;15.10;24.40
16532;DHT22;66872;63.142;14.482;2024-02-15T05:43:47;15.10;24.40
16532;DHT22;66872;63.142;14.482;2024-02-15T05:46:17;15.10;24.40
16532;DHT22;66872;63.142;14.482;2024-02-15T05:48:43;15.10;24.40
16532;DHT22;66872;63.142;14.482;2024-02-15T05:51:09;15.10;24.40
16532;DHT22;66872;63.142;14.482;2024-02-15T05:53:36;15.10;24.40
16532;DHT22;66872;63.142;14.482;2024-02-15T05:56:08;15.10;24.40
16532;DHT22;66872;63.142;14.482;2024-02-15T05:58:34;15.10;24.40
16532;DHT22;66872;63.142;14.482;2024-02-15T06:01:02;15.10;24.40
16532;DHT22;66872;63.142;14.482;2024-02-15T06:03:31;15.10;24.40
16532;DHT22;66872;63.142;14.482;2024-02-15T06:05:59;15.10;24.40
16532;DHT22;66872;63.142;14.482;2024-02-15T06:08:27;15.10;24.40
16532;DHT22;66872;63.142;14.482;2024-02-15T06:10:55;15.10;24.40
16532;DHT22;66872;63.142;14.482;2024-02-15T06:13:23;15.10;24.40
16532;DHT22;66872;63.142;14.482;2024-02-15T06:15:52;15.10;24.40
16532;DHT22;66872;63.142;14.482;2024-02-15T06:18:23;15.10;24.40
16532;DHT22;66872;63.142;14.482;2024-02-15T06:20:58;15.10;24.40
16532;DHT22;66872;63.142;14.482;2024-02-15T06:23:25;15.10;24.40
16532;DHT22;66872;63.142;14.482;2024-02-15T06:25:54;15.10;24.40
16532;DHT22;66872;63.142;14.482;2024-02-15T06:28:22;15.00;24.30
16532;DHT22;66872;63.142;14.482;2024-02-15T06:31:11;15.00;24.30
16532;DHT22;66872;63.142;14.482;2024-02-15T06:33:55;15.00;24.30
16532;DHT22;66872;63.142;14.482;2024-02-15T06:39:30;15.10;24.40
16532;DHT22;66872;63.142;14.482;2024-02-15T06:42:09;15.00;24.30
16532;DHT22;66872;63.142;14.482;2024-02-15T06:44:36;15.00;24.40
16532;DHT22;66872;63.142;14.482;2024-02-15T06:47:05;15.00;24.40
16532;DHT22;66872;63.142;14.482;2024-02-15T06:49:32;15.00;24.40
16532;DHT22;66872;63.142;14.482;2024-02-15T06:51:58;15.00;24.30
16532;DHT22;66872;63.142;14.482;2024-02-15T06:54:27;15.10;24.40
16532;DHT22;66872;63.142;14.482;2024-02-15T06:56:53;15.00;24.40
16532;DHT22;66872;63.142;14.482;2024-02-15T06:59:20;15.00;24.40
16532;DHT22;66872;63.142;14.482;2024-02-15T07:01:49;15.00;24.40
16532;DHT22;66872;63.142;14.482;2024-02-15T07:04:14;15.00;24.40
16532;DHT22;66872;63.142;14.482;2024-02-15T07:06:40;15.00;24.40
16532;DHT22;66872;63.142;14.482;2024-02-15T07:09:10;15.00;24.30
16532;DHT22;66872;63.142;14.482;2024-02-15T07:11:36;15.00;24.40
16532;DHT22;66872;63.142;14.482;2024-02-15T07:14:02;15.00;24.40
16532;DHT22;66872;63.142;14.482;2024-02-15T07:16:30;15.00;24.40
16532;DHT22;66872;63.142;14.482;2024-02-15T07:18:55;15.00;24.40
16532;DHT22;66872;63.142;14.482;2024-02-15T07:21:22;15.00;24.40
16532;DHT22;66872;63.142;14.482;2024-02-15T07:23:55;15.00;24.40
16532;DHT22;66872;63.142;14.482;2024-02-15T07:26:22;15.00;24.50
16532;DHT22;66872;63.142;14.482;2024-02-15T07:28:53;15.00;24.50
16532;DHT22;66872;63.142;14.482;2024-02-15T07:31:22;15.00;24.50
16532;DHT22;66872;63.142;14.482;2024-02-15T07:33:51;14.90;24.50
16532;DHT22;66872;63.142;14.482;2024-02-15T07:36:23;14.90;24.50
16532;DHT22;66872;63.142;14.482;2024-02-15T07:38:53;15.00;24.60
16532;DHT22;66872;63.142;14.482;2024-02-15T07:41:22;14.90;24.50
16532;DHT22;66872;63.142;14.482;2024-02-15T07:43:50;14.90;24.50
16532;DHT22;66872;63.142;14.482;2024-02-15T07:46:16;14.90;24.50
16532;DHT22;66872;63.142;14.482;2024-02-15T07:48:45;14.90;24.50
16532;DHT22;66872;63.142;14.482;2024-02-15T07:51:15;14.90;24.50
16532;DHT22;66872;63.142;14.482;2024-02-15T07:53:42;14.90;24.50
16532;DHT22;66872;63.142;14.482;2024-02-15T07:56:12;14.90;24.60
16532;DHT22;66872;63.142;14.482;2024-02-15T07:58:39;14.80;24.60
16532;DHT22;66872;63.142;14.482;2024-02-15T08:01:07;14.80;24.60
16532;DHT22;66872;63.142;14.482;2024-02-15T08:03:35;14.80;24.60
16532;DHT22;66872;63.142;14.482;2024-02-15T08:06:01;14.80;24.70
16532;DHT22;66872;63.142;14.482;2024-02-15T08:08:32;14.80;24.70
16532;DHT22;66872;63.142;14.482;2024-02-15T08:11:00;14.80;24.70
16532;DHT22;66872;63.142;14.482;2024-02-15T08:13:27;14.80;24.80
16532;DHT22;66872;63.142;14.482;2024-02-15T08:15:55;14.80;24.80
16532;DHT22;66872;63.142;14.482;2024-02-15T08:18:21;14.80;24.80
16532;DHT22;66872;63.142;14.482;2024-02-15T08:20:46;14.80;24.80
16532;DHT22;66872;63.142;14.482;2024-02-15T08:23:12;14.70;24.80
16532;DHT22;66872;63.142;14.482;2024-02-15T08:25:38;14.70;24.90
16532;DHT22;66872;63.142;14.482;2024-02-15T08:28:05;14.60;24.90
16532;DHT22;66872;63.142;14.482;2024-02-15T08:30:33;14.70;24.90
16532;DHT22;66872;63.142;14.482;2024-02-15T08:32:58;14.60;24.90
16532;DHT22;66872;63.142;14.482;2024-02-15T08:35:24;14.60;24.90
16532;DHT22;66872;63.142;14.482;2024-02-15T08:37:50;14.60;25.00
16532;DHT22;66872;63.142;14.482;2024-02-15T08:40:17;14.60;25.00
16532;DHT22;66872;63.142;14.482;2024-02-15T08:42:45;14.60;25.00
16532;DHT22;66872;63.142;14.482;2024-02-15T08:45:11;14.60;25.00
16532;DHT22;66872;63.142;14.482;2024-02-15T08:47:42;14.60;25.00
16532;DHT22;66872;63.142;14.482;2024-02-15T08:50:09;14.60;25.00
16532;DHT22;66872;63.142;14.482;2024-02-15T08:52:38;14.60;25.00
16532;DHT22;66872;63.142;14.482;2024-02-15T08:55:11;14.60;25.10
16532;DHT22;66872;63.142;14.482;2024-02-15T08:57:40;14.60;25.10
16532;DHT22;66872;63.142;14.482;2024-02-15T09:00:06;14.60;25.10
16532;DHT22;66872;63.142;14.482;2024-02-15T09:02:42;14.60;25.10
16532;DHT22;66872;63.142;14.482;2024-02-15T09:05:08;14.60;25.10
16532;DHT22;66872;63.142;14.482;2024-02-15T09:07:34;14.60;25.10
16532;DHT22;66872;63.142;14.482;2024-02-15T09:10:02;14.60;25.10
16532;DHT22;66872;63.142;14.482;2024-02-15T09:12:28;14.60;25.00
16532;DHT22;66872;63.142;14.482;2024-02-15T09:14:54;14.70;25.10
16532;DHT22;66872;63.142;14.482;2024-02-15T09:17:20;14.60;25.00
16532;DHT22;66872;63.142;14.482;2024-02-15T09:19:48;14.70;25.10
16532;DHT22;66872;63.142;14.482;2024-02-15T09:22:17;14.60;25.00
16532;DHT22;66872;63.142;14.482;2024-02-15T09:24:42;14.60;25.00
16532;DHT22;66872;63.142;14.482;2024-02-15T09:27:08;14.70;25.10
16532;DHT22;66872;63.142;14.482;2024-02-15T09:29:37;14.70;25.10
16532;DHT22;66872;63.142;14.482;2024-02-15T09:32:04;14.70;25.10
16532;DHT22;66872;63.142;14.482;2024-02-15T09:34:30;14.70;25.10
16532;DHT22;66872;63.142;14.482;2024-02-15T09:36:55;14.70;25.10
16532;DHT22;66872;63.142;14.482;2024-02-15T09:39:22;14.70;25.50
16532;DHT22;66872;63.142;14.482;2024-02-15T09:41:49;14.70;25.00
16532;DHT22;66872;63.142;14.482;2024-02-15T09:44:21;14.80;25.10
16532;DHT22;66872;63.142;14.482;2024-02-15T09:46:50;14.70;25.00
16532;DHT22;66872;63.142;14.482;2024-02-15T09:49:21;14.80;25.00
16532;DHT22;66872;63.142;14.482;2024-02-15T09:51:47;14.80;25.00
16532;DHT22;66872;63.142;14.482;2024-02-15T09:54:15;14.80;25.00
16532;DHT22;66872;63.142;14.482;2024-02-15T09:56:49;14.80;25.00
16532;DHT22;66872;63.142;14.482;2024-02-15T09:59:16;14.80;25.00
16532;DHT22;66872;63.142;14.482;2024-02-15T10:01:43;14.80;25.00
16532;DHT22;66872;63.142;14.482;2024-02-15T10:04:11;14.80;25.00
16532;DHT22;66872;63.142;14.482;2024-02-15T10:06:44;14.80;25.10
16532;DHT22;66872;63.142;14.482;2024-02-15T10:11:55;14.80;25.00
16532;DHT22;66872;63.142;14.482;2024-02-15T10:14:25;14.80;25.00
16532;DHT22;66872;63.142;14.482;2024-02-15T10:16:52;14.80;24.90
16532;DHT22;66872;63.142;14.482;2024-02-15T10:19:18;14.80;24.90
16532;DHT22;66872;63.142;14.482;2024-02-15T10:21:46;14.90;25.00
16532;DHT22;66872;63.142;14.482;2024-02-15T10:24:12;14.90;25.00
16532;DHT22;66872;63.142;14.482;2024-02-15T10:26:37;14.90;24.90
16532;DHT22;66872;63.142;14.482;2024-02-15T10:29:10;14.90;24.90
16532;DHT22;66872;63.142;14.482;2024-02-15T10:31:40;14.90;25.00
16532;DHT22;66872;63.142;14.482;2024-02-15T10:34:14;14.90;24.90
16532;DHT22;66872;63.142;14.482;2024-02-15T10:36:39;14.90;24.90
16532;DHT22;66872;63.142;14.482;2024-02-15T10:39:19;14.90;24.90
16532;DHT22;66872;63.142;14.482;2024-02-15T10:41:54;14.90;24.90
16532;DHT22;66872;63.142;14.482;2024-02-15T10:44:24;15.00;25.00
16532;DHT22;66872;63.142;14.482;2024-02-15T10:46:54;15.00;24.90
16532;DHT22;66872;63.142;14.482;2024-02-15T10:49:26;15.00;24.90
16532;DHT22;66872;63.142;14.482;2024-02-15T10:52:00;15.00;24.90
16532;DHT22;66872;63.142;14.482;2024-02-15T10:54:52;15.00;24.90
16532;DHT22;66872;63.142;14.482;2024-02-15T10:57:22;15.00;24.90
16532;DHT22;66872;63.142;14.482;2024-02-15T10:59:58;15.00;24.80
16532;DHT22;66872;63.142;14.482;2024-02-15T11:02:33;15.10;24.90
16532;DHT22;66872;63.142;14.482;2024-02-15T11:05:05;15.10;24.80
16532;DHT22;66872;63.142;14.482;2024-02-15T11:07:35;15.10;24.80
16532;DHT22;66872;63.142;14.482;2024-02-15T11:10:03;15.10;24.80
16532;DHT22;66872;63.142;14.482;2024-02-15T11:12:32;15.10;24.80
16532;DHT22;66872;63.142;14.482;2024-02-15T11:14:59;15.20;24.80
16532;DHT22;66872;63.142;14.482;2024-02-15T11:20:05;15.20;24.80
16532;DHT22;66872;63.142;14.482;2024-02-15T11:22:35;15.20;24.80
16532;DHT22;66872;63.142;14.482;2024-02-15T11:25:08;15.20;24.80
16532;DHT22;66872;63.142;14.482;2024-02-15T11:27:40;15.20;24.80
16532;DHT22;66872;63.142;14.482;2024-02-15T11:30:07;15.20;24.70
16532;DHT22;66872;63.142;14.482;2024-02-15T11:32:37;15.20;24.70
16532;DHT22;66872;63.142;14.482;2024-02-15T11:43:10;15.30;24.80
16532;DHT22;66872;63.142;14.482;2024-02-15T11:45:36;15.30;24.80
16532;DHT22;66872;63.142;14.482;2024-02-15T11:48:13;15.30;24.80
16532;DHT22;66872;63.142;14.482;2024-02-15T11:50:39;15.30;24.80
16532;DHT22;66872;63.142;14.482;2024-02-15T11:53:07;15.30;24.80
16532;DHT22;66872;63.142;14.482;2024-02-15T11:55:36;15.30;24.80
16532;DHT22;66872;63.142;14.482;2024-02-15T11:58:04;15.30;24.80
16532;DHT22;66872;63.142;14.482;2024-02-15T12:00:36;15.30;24.80
16532;DHT22;66872;63.142;14.482;2024-02-15T12:03:21;15.30;24.80
16532;DHT22;66872;63.142;14.482;2024-02-15T12:06:06;15.30;24.80
16532;DHT22;66872;63.142;14.482;2024-02-15T12:08:52;15.30;24.80
16532;DHT22;66872;63.142;14.482;2024-02-15T12:11:37;15.30;24.80
16532;DHT22;66872;63.142;14.482;2024-02-15T12:14:21;15.30;24.80
16532;DHT22;66872;63.142;14.482;2024-02-15T12:17:10;15.30;24.80
16532;DHT22;66872;63.142;14.482;2024-02-15T12:19:55;15.30;24.80
16532;DHT22;66872;63.142;14.482;2024-02-15T12:22:35;15.30;24.80
16532;DHT22;66872;63.142;14.482;2024-02-15T12:25:03;15.30;24.80
16532;DHT22;66872;63.142;14.482;2024-02-15T12:27:37;15.30;24.80
16532;DHT22;66872;63.142;14.482;2024-02-15T12:30:05;15.30;24.80
16532;DHT22;66872;63.142;14.482;2024-02-15T12:32:32;15.30;25.30
16532;DHT22;66872;63.142;14.482;2024-02-15T12:35:13;15.30;24.80
16532;DHT22;66872;63.142;14.482;2024-02-15T12:37:43;15.30;24.80
16532;DHT22;66872;63.142;14.482;2024-02-15T12:40:17;15.40;24.90
16532;DHT22;66872;63.142;14.482;2024-02-15T12:42:44;15.30;24.80
16532;DHT22;66872;63.142;14.482;2024-02-15T12:45:20;15.30;24.80
16532;DHT22;66872;63.142;14.482;2024-02-15T12:47:53;15.40;24.90
16532;DHT22;66872;63.142;14.482;2024-02-15T12:50:20;15.30;24.80
16532;DHT22;66872;63.142;14.482;2024-02-15T12:52:48;15.40;24.90
16532;DHT22;66872;63.142;14.482;2024-02-15T12:55:21;15.30;24.80
16532;DHT22;66872;63.142;14.482;2024-02-15T12:57:52;15.30;24.80
16532;DHT22;66872;63.142;14.482;2024-02-15T13:00:23;15.30;24.80
16532;DHT22;66872;63.142;14.482;2024-02-15T13:02:54;15.30;24.80
16532;DHT22;66872;63.142;14.482;2024-02-15T13:05:20;15.30;24.80
16532;DHT22;66872;63.142;14.482;2024-02-15T13:07:47;15.30;24.80
16532;DHT22;66872;63.142;14.482;2024-02-15T13:10:13;15.30;24.80
16532;DHT22;66872;63.142;14.482;2024-02-15T13:12:44;15.30;24.80
16532;DHT22;66872;63.142;14.482;2024-02-15T13:15:11;15.30;24.80
16532;DHT22;66872;63.142;14.482;2024-02-15T13:17:42;15.30;24.90
16532;DHT22;66872;63.142;14.482;2024-02-15T13:20:08;15.30;24.80
16532;DHT22;66872;63.142;14.482;2024-02-15T13:22:38;15.30;24.90
16532;DHT22;66872;63.142;14.482;2024-02-15T13:25:07;15.30;24.90
16532;DHT22;66872;63.142;14.482;2024-02-15T13:27:35;15.30;24.80
16532;DHT22;66872;63.142;14.482;2024-02-15T13:30:07;15.30;24.80
16532;DHT22;66872;63.142;14.482;2024-02-15T13:32:36;15.30;24.80
16532;DHT22;66872;63.142;14.482;2024-02-15T13:35:07;15.30;24.80
16532;DHT22;66872;63.142;14.482;2024-02-15T13:37:47;15.30;24.80
16532;DHT22;66872;63.142;14.482;2024-02-15T13:40:14;15.30;24.80
16532;DHT22;66872;63.142;14.482;2024-02-15T13:42:43;15.30;24.80
16532;DHT22;66872;63.142;14.482;2024-02-15T13:45:15;15.30;24.80
16532;DHT22;66872;63.142;14.482;2024-02-15T13:47:46;15.30;24.80
16532;DHT22;66872;63.142;14.482;2024-02-15T13:50:13;15.30;24.80
16532;DHT22;66872;63.142;14.482;2024-02-15T13:52:43;15.30;24.80
16532;DHT22;66872;63.142;14.482;2024-02-15T13:55:10;15.30;24.80
16532;DHT22;66872;63.142;14.482;2024-02-15T13:57:38;15.30;24.90
16532;DHT22;66872;63.142;14.482;2024-02-15T14:00:04;15.30;24.80
16532;DHT22;66872;63.142;14.482;2024-02-15T14:02:31;15.30;24.80
16532;DHT22;66872;63.142;14.482;2024-02-15T14:04:57;15.30;24.80
16532;DHT22;66872;63.142;14.482;2024-02-15T14:07:22;15.30;24.80
16532;DHT22;66872;63.142;14.482;2024-02-15T14:09:48;15.40;24.90
16532;DHT22;66872;63.142;14.482;2024-02-15T14:12:14;15.30;24.80
16532;DHT22;66872;63.142;14.482;2024-02-15T14:14:41;15.30;24.90
16532;DHT22;66872;63.142;14.482;2024-02-15T14:17:08;15.30;24.90
16532;DHT22;66872;63.142;14.482;2024-02-15T14:19:34;15.30;24.90
16532;DHT22;66872;63.142;14.482;2024-02-15T14:22:00;15.30;24.90
16532;DHT22;66872;63.142;14.482;2024-02-15T14:24:27;15.30;24.90
16532;DHT22;66872;63.142;14.482;2024-02-15T14:26:52;15.30;24.90
16532;DHT22;66872;63.142;14.482;2024-02-15T14:29:18;15.30;24.90
16532;DHT22;66872;63.142;14.482;2024-02-15T14:31:53;15.30;24.90
16532;DHT22;66872;63.142;14.482;2024-02-15T14:34:37;15.30;24.90
16532;DHT22;66872;63.142;14.482;2024-02-15T14:37:03;15.30;24.80
16532;DHT22;66872;63.142;14.482;2024-02-15T14:39:31;15.30;24.90
16532;DHT22;66872;63.142;14.482;2024-02-15T14:41:57;15.30;24.80
16532;DHT22;66872;63.142;14.482;2024-02-15T14:44:23;15.30;24.90
16532;DHT22;66872;63.142;14.482;2024-02-15T14:46:49;15.30;24.90
16532;DHT22;66872;63.142;14.482;2024-02-15T14:49:14;15.30;24.90
16532;DHT22;66872;63.142;14.482;2024-02-15T14:51:42;15.30;24.90
16532;DHT22;66872;63.142;14.482;2024-02-15T14:54:08;15.30;24.90
16532;DHT22;66872;63.142;14.482;2024-02-15T14:56:33;15.30;24.90
16532;DHT22;66872;63.142;14.482;2024-02-15T14:58:59;15.30;24.90
16532;DHT22;66872;63.142;14.482;2024-02-15T15:01:26;15.30;24.90
16532;DHT22;66872;63.142;14.482;2024-02-15T15:03:54;15.30;24.90
16532;DHT22;66872;63.142;14.482;2024-02-15T15:06:20;15.30;24.90
16532;DHT22;66872;63.142;14.482;2024-02-15T15:09:05;15.20;24.90
16532;DHT22;66872;63.142;14.482;2024-02-15T15:11:49;15.30;24.90
16532;DHT22;66872;63.142;14.482;2024-02-15T15:14:33;15.20;24.90
16532;DHT22;66872;63.142;14.482;2024-02-15T15:16:58;15.20;24.90
16532;DHT22;66872;63.142;14.482;2024-02-15T15:19:25;15.20;24.90
16532;DHT22;66872;63.142;14.482;2024-02-15T15:21:52;15.20;24.90
16532;DHT22;66872;63.142;14.482;2024-02-15T15:24:19;15.20;24.90
16532;DHT22;66872;63.142;14.482;2024-02-15T15:26:45;15.20;25.00
16532;DHT22;66872;63.142;14.482;2024-02-15T15:29:10;15.20;25.00
16532;DHT22;66872;63.142;14.482;2024-02-15T15:31:36;15.20;25.00
16532;DHT22;66872;63.142;14.482;2024-02-15T15:34:02;15.20;25.00
16532;DHT22;66872;63.142;14.482;2024-02-15T15:36:27;15.20;25.00
16532;DHT22;66872;63.142;14.482;2024-02-15T15:38:53;15.20;24.90